createdAt,value
2018-07-22T00:02:21.595Z,99.40
2018-07-22T00:04:49.820Z,99.80
2018-07-22T00:07:18.064Z,99.70
2018-07-22T00:09:46.304Z,99.90
2018-07-22T00:12:14.556Z,99.90
2018-07-22T00:14:42.787Z,99.90
2018-07-22T00:17:11.048Z,99.90
2018-07-22T00:19:39.275Z,99.90
2018-07-22T00:22:07.520Z,99.90
2018-07-22T00:24:35.743Z,99.90
2018-07-22T00:27:03.989Z,99.90
2018-07-22T00:29:32.212Z,99.90
2018-07-22T00:32:00.468Z,99.90
2018-07-22T00:34:28.696Z,99.90
2018-07-22T00:36:56.944Z,99.90
2018-07-22T00:39:25.176Z,99.90
2018-07-22T00:41:53.415Z,99.90
2018-07-22T00:44:21.647Z,99.90
2018-07-22T00:46:49.899Z,99.90
2018-07-22T00:49:18.127Z,99.90
2018-07-22T00:51:46.367Z,99.90
2018-07-22T00:54:14.597Z,99.90
2018-07-22T00:56:42.836Z,99.90
2018-07-22T00:59:11.066Z,99.90
2018-07-22T01:01:39.319Z,99.90
2018-07-22T01:04:07.548Z,99.90
2018-07-22T01:06:35.793Z,99.90
2018-07-22T01:09:06.081Z,99.90
2018-07-22T01:11:34.336Z,99.90
2018-07-22T01:14:02.594Z,99.90
2018-07-22T01:16:30.841Z,99.90
2018-07-22T01:18:59.084Z,99.90
2018-07-22T01:21:27.333Z,99.90
2018-07-22T01:23:55.556Z,99.90
2018-07-22T01:26:23.801Z,99.90
2018-07-22T01:28:52.028Z,99.90
2018-07-22T01:31:20.260Z,99.90
2018-07-22T01:33:48.512Z,99.90
2018-07-22T01:36:16.751Z,99.90
2018-07-22T01:38:44.977Z,99.90
2018-07-22T01:41:13.220Z,99.90
2018-07-22T01:43:41.436Z,99.90
2018-07-22T01:46:09.676Z,99.90
2018-07-22T01:48:37.903Z,99.90
2018-07-22T01:51:06.147Z,99.90
2018-07-22T01:53:34.376Z,99.90
2018-07-22T01:56:02.600Z,99.90
2018-07-22T01:58:30.844Z,99.90
2018-07-22T02:00:59.076Z,99.90
2018-07-22T02:03:27.320Z,99.90
2018-07-22T02:05:55.556Z,99.90
2018-07-22T02:08:23.788Z,99.90
2018-07-22T02:10:52.016Z,99.90
2018-07-22T02:13:20.258Z,99.90
2018-07-22T02:15:48.492Z,99.90
2018-07-22T02:18:16.748Z,99.90
2018-07-22T02:20:44.977Z,99.90
2018-07-22T02:23:13.241Z,99.90
2018-07-22T02:25:41.471Z,99.90
2018-07-22T02:28:09.710Z,99.90
2018-07-22T02:30:37.936Z,99.90
2018-07-22T02:33:06.336Z,99.90
2018-07-22T02:35:34.567Z,99.90
2018-07-22T02:38:02.836Z,99.90
2018-07-22T02:40:31.060Z,99.90
2018-07-22T02:42:59.310Z,99.90
2018-07-22T02:45:27.535Z,99.90
2018-07-22T02:47:55.788Z,99.90
2018-07-22T02:50:24.005Z,99.90
2018-07-22T02:52:52.248Z,99.90
2018-07-22T02:55:20.468Z,99.90
2018-07-22T02:57:48.712Z,99.90
2018-07-22T03:00:16.935Z,99.90
2018-07-22T03:02:45.209Z,99.90
2018-07-22T03:05:13.434Z,99.90
2018-07-22T03:07:41.681Z,99.90
2018-07-22T03:10:09.913Z,99.90
2018-07-22T03:12:38.148Z,99.90
2018-07-22T03:15:06.404Z,99.90
2018-07-22T03:17:34.662Z,99.90
2018-07-22T03:20:02.896Z,99.90
2018-07-22T03:22:31.132Z,99.90
2018-07-22T03:24:59.389Z,99.90
2018-07-22T03:27:27.626Z,99.90
2018-07-22T03:29:55.844Z,99.90
2018-07-22T03:32:24.076Z,99.90
2018-07-22T03:34:52.292Z,99.90
2018-07-22T03:37:20.532Z,99.90
2018-07-22T03:39:48.755Z,99.90
2018-07-22T03:42:16.996Z,99.90
2018-07-22T03:44:45.212Z,99.90
2018-07-22T03:47:13.427Z,99.90
2018-07-22T03:49:41.666Z,99.90
2018-07-22T03:52:09.884Z,99.90
2018-07-22T03:54:38.151Z,99.90
2018-07-22T03:57:06.368Z,99.90
2018-07-22T03:59:34.708Z,99.90
2018-07-22T04:02:02.939Z,99.90
2018-07-22T04:04:31.257Z,99.90
2018-07-22T04:06:59.518Z,99.90
2018-07-22T04:09:27.739Z,99.90
2018-07-22T04:11:55.959Z,99.90
2018-07-22T04:14:24.195Z,99.90
2018-07-22T04:16:52.435Z,99.90
2018-07-22T04:19:20.676Z,99.70
2018-07-22T04:21:48.915Z,99.90
2018-07-22T04:24:17.156Z,99.70
2018-07-22T04:26:45.371Z,99.90
2018-07-22T04:29:13.607Z,99.90
2018-07-22T04:31:41.836Z,99.30
2018-07-22T04:34:10.080Z,99.30
2018-07-22T04:36:38.295Z,99.30
2018-07-22T04:39:08.125Z,98.90
2018-07-22T04:41:36.359Z,99.10
2018-07-22T04:44:04.613Z,99.10
2018-07-22T04:46:32.836Z,98.20
2018-07-22T04:49:01.084Z,98.30
2018-07-22T04:51:29.300Z,97.90
2018-07-22T04:53:57.543Z,98.10
2018-07-22T04:56:25.778Z,97.00
2018-07-22T04:58:54.070Z,97.50
2018-07-22T05:01:22.296Z,97.60
2018-07-22T05:03:50.548Z,96.10
2018-07-22T05:06:18.765Z,96.00
2018-07-22T05:08:47.007Z,96.20
2018-07-22T05:11:15.231Z,95.50
2018-07-22T05:13:43.475Z,94.90
2018-07-22T05:16:11.706Z,95.30
2018-07-22T05:18:39.963Z,94.00
2018-07-22T05:21:08.197Z,94.40
2018-07-22T05:23:36.439Z,94.60
2018-07-22T05:26:04.888Z,95.00
2018-07-22T05:28:33.127Z,94.70
2018-07-22T05:31:01.357Z,94.30
2018-07-22T05:33:29.595Z,94.30
2018-07-22T05:35:57.838Z,94.70
2018-07-22T05:38:26.088Z,92.90
2018-07-22T05:40:54.350Z,93.20
2018-07-22T05:43:22.580Z,92.70
2018-07-22T05:45:50.841Z,93.10
2018-07-22T05:48:19.083Z,92.70
2018-07-22T05:50:47.315Z,92.80
2018-07-22T05:53:15.541Z,92.30
2018-07-22T05:55:43.780Z,91.90
2018-07-22T05:58:11.996Z,90.70
2018-07-22T06:00:40.245Z,90.10
2018-07-22T06:03:08.493Z,90.60
2018-07-22T06:05:36.751Z,90.50
2018-07-22T06:08:05.036Z,90.10
2018-07-22T06:10:33.278Z,91.20
2018-07-22T06:13:01.486Z,88.10
2018-07-22T06:15:29.723Z,88.60
2018-07-22T06:17:57.955Z,89.30
2018-07-22T06:20:26.199Z,89.60
2018-07-22T06:22:54.415Z,88.80
2018-07-22T06:25:22.652Z,88.00
2018-07-22T06:27:50.905Z,86.20
2018-07-22T06:30:19.145Z,87.50
2018-07-22T06:32:47.354Z,82.30
2018-07-22T06:35:15.670Z,80.30
2018-07-22T06:37:43.832Z,81.00
2018-07-22T06:40:12.081Z,79.80
2018-07-22T06:42:40.304Z,75.70
2018-07-22T06:45:08.547Z,82.60
2018-07-22T06:47:36.774Z,77.60
2018-07-22T06:50:05.255Z,77.20
2018-07-22T06:52:33.476Z,77.80
2018-07-22T06:55:01.714Z,79.10
2018-07-22T06:57:29.936Z,75.60
2018-07-22T06:59:58.188Z,74.30
2018-07-22T07:02:26.429Z,75.10
2018-07-22T07:04:54.689Z,76.40
2018-07-22T07:07:22.911Z,73.80
2018-07-22T07:09:51.144Z,74.60
2018-07-22T07:12:19.363Z,72.70
2018-07-22T07:14:47.599Z,71.50
2018-07-22T07:17:15.839Z,74.00
2018-07-22T07:19:44.063Z,74.10
2018-07-22T07:22:12.280Z,71.00
2018-07-22T07:24:40.516Z,71.70
2018-07-22T07:27:08.908Z,69.00
2018-07-22T07:29:37.143Z,71.70
2018-07-22T07:32:05.484Z,71.00
2018-07-22T07:34:33.727Z,71.80
2018-07-22T07:37:01.996Z,68.60
2018-07-22T07:39:30.211Z,69.00
2018-07-22T07:41:58.440Z,66.80
2018-07-22T07:44:26.644Z,66.00
2018-07-22T07:46:54.876Z,67.30
2018-07-22T07:49:23.097Z,71.50
2018-07-22T07:51:51.392Z,64.60
2018-07-22T07:54:19.584Z,66.20
2018-07-22T07:56:47.824Z,66.20
2018-07-22T07:59:16.040Z,67.60
2018-07-22T08:01:44.275Z,67.00
2018-07-22T08:04:12.500Z,70.00
2018-07-22T08:06:40.865Z,65.30
2018-07-22T08:09:10.197Z,62.20
2018-07-22T08:11:38.462Z,64.60
2018-07-22T08:14:06.692Z,57.40
2018-07-22T08:16:35.583Z,58.00
2018-07-22T08:19:03.845Z,55.80
2018-07-22T08:21:32.088Z,56.20
2018-07-22T08:24:00.320Z,62.50
2018-07-22T08:26:28.563Z,62.40
2018-07-22T08:29:32.226Z,57.00
2018-07-22T08:32:01.113Z,58.90
2018-07-22T08:34:29.355Z,58.90
2018-07-22T08:36:57.592Z,57.50
2018-07-22T08:39:27.920Z,60.00
2018-07-22T08:41:56.535Z,58.00
2018-07-22T08:44:24.762Z,54.10
2018-07-22T08:46:52.996Z,55.30
2018-07-22T08:49:21.216Z,59.40
2018-07-22T08:51:49.452Z,56.80
2018-07-22T08:54:17.675Z,58.20
2018-07-22T08:56:45.947Z,56.20
2018-07-22T08:59:14.156Z,58.10
2018-07-22T09:01:42.391Z,58.80
2018-07-22T09:04:10.603Z,54.30
2018-07-22T09:06:38.837Z,54.30
2018-07-22T09:09:08.045Z,54.30
2018-07-22T09:11:36.403Z,53.30
2018-07-22T09:14:04.976Z,54.70
2018-07-22T09:16:33.215Z,51.40
2018-07-22T09:19:01.606Z,53.80
2018-07-22T09:21:29.853Z,55.20
2018-07-22T09:23:58.088Z,54.00
2018-07-22T09:26:26.321Z,49.70
2018-07-22T09:28:54.560Z,50.00
2018-07-22T09:31:22.811Z,50.40
2018-07-22T09:33:51.048Z,50.80
2018-07-22T09:36:19.331Z,48.80
2018-07-22T09:38:47.523Z,49.90
2018-07-22T09:41:15.768Z,51.10
2018-07-22T09:43:43.984Z,50.50
2018-07-22T09:46:12.223Z,48.10
2018-07-22T09:48:40.436Z,48.60
2018-07-22T09:51:08.700Z,48.40
2018-07-22T09:53:36.964Z,50.00
2018-07-22T09:56:05.251Z,48.80
2018-07-22T09:58:33.480Z,49.30
2018-07-22T10:01:02.152Z,46.10
2018-07-22T10:03:31.180Z,52.70
2018-07-22T10:05:59.410Z,46.00
2018-07-22T10:08:27.788Z,47.90
2018-07-22T10:10:56.044Z,44.80
2018-07-22T10:13:24.275Z,46.90
2018-07-22T10:15:52.500Z,43.90
2018-07-22T10:18:20.769Z,47.50
2018-07-22T10:20:48.980Z,47.20
2018-07-22T10:23:17.278Z,48.80
2018-07-22T10:25:45.468Z,43.40
2018-07-22T10:28:13.700Z,42.60
2018-07-22T10:30:41.923Z,45.40
2018-07-22T10:33:10.163Z,42.50
2018-07-22T10:35:38.376Z,43.60
2018-07-22T10:38:06.647Z,44.00
2018-07-22T10:40:34.863Z,45.40
2018-07-22T10:43:03.104Z,44.00
2018-07-22T10:45:31.332Z,44.70
2018-07-22T10:47:59.576Z,42.30
2018-07-22T10:50:27.800Z,43.70
2018-07-22T10:52:56.028Z,41.10
2018-07-22T10:55:24.249Z,42.80
2018-07-22T10:57:52.492Z,42.50
2018-07-22T11:00:20.716Z,43.60
2018-07-22T11:02:48.956Z,44.00
2018-07-22T11:05:17.172Z,44.30
2018-07-22T11:07:45.412Z,42.50
2018-07-22T11:10:13.636Z,43.00
2018-07-22T11:12:41.867Z,43.80
2018-07-22T11:15:10.096Z,42.80
2018-07-22T11:17:38.352Z,43.30
2018-07-22T11:20:06.592Z,42.80
2018-07-22T11:22:34.833Z,43.10
2018-07-22T11:25:03.044Z,42.00
2018-07-22T11:27:31.289Z,43.20
2018-07-22T11:29:59.519Z,47.80
2018-07-22T11:32:27.796Z,42.30
2018-07-22T11:34:56.008Z,43.50
2018-07-22T11:37:24.251Z,41.60
2018-07-22T11:39:52.472Z,43.90
2018-07-22T11:42:20.713Z,41.60
2018-07-22T11:44:48.923Z,40.40
2018-07-22T11:47:17.171Z,41.90
2018-07-22T11:49:45.406Z,41.90
2018-07-22T11:52:13.628Z,39.10
2018-07-22T11:54:41.864Z,43.50
2018-07-22T11:57:10.221Z,43.40
2018-07-22T11:59:38.467Z,42.20
2018-07-22T12:02:06.696Z,41.80
2018-07-22T12:04:34.932Z,41.90
2018-07-22T12:07:03.151Z,45.90
2018-07-22T12:09:31.394Z,41.60
2018-07-22T12:11:59.616Z,40.30
2018-07-22T12:14:27.857Z,41.40
2018-07-22T12:16:56.083Z,42.50
2018-07-22T12:19:24.330Z,42.50
2018-07-22T12:21:52.545Z,42.30
2018-07-22T12:24:20.780Z,43.40
2018-07-22T12:26:49.000Z,42.00
2018-07-22T12:29:17.220Z,40.70
2018-07-22T12:31:45.432Z,44.20
2018-07-22T12:34:20.176Z,41.30
2018-07-22T12:36:48.339Z,40.70
2018-07-22T12:39:16.577Z,42.20
2018-07-22T12:41:44.795Z,42.70
2018-07-22T12:44:13.033Z,41.70
2018-07-22T12:46:41.251Z,41.90
2018-07-22T12:49:09.482Z,41.30
2018-07-22T12:51:37.695Z,41.70
2018-07-22T12:54:05.984Z,40.00
2018-07-22T12:56:34.203Z,42.30
2018-07-22T12:59:02.441Z,44.10
2018-07-22T13:01:30.657Z,43.10
2018-07-22T13:03:58.895Z,41.00
2018-07-22T13:06:27.120Z,43.20
2018-07-22T13:08:55.512Z,44.30
2018-07-22T13:11:23.720Z,42.80
2018-07-22T13:13:51.961Z,42.70
2018-07-22T13:16:20.176Z,46.50
2018-07-22T13:18:48.508Z,46.60
2018-07-22T13:21:16.712Z,43.30
2018-07-22T13:23:44.941Z,46.40
2018-07-22T13:26:13.152Z,42.30
2018-07-22T13:28:41.562Z,41.10
2018-07-22T13:31:09.795Z,42.70
2018-07-22T13:33:38.023Z,40.80
2018-07-22T13:36:06.247Z,43.10
2018-07-22T13:38:34.658Z,43.60
2018-07-22T13:41:02.823Z,43.10
2018-07-22T13:43:31.064Z,41.60
2018-07-22T13:45:59.287Z,43.80
2018-07-22T13:48:27.515Z,42.00
2018-07-22T13:50:55.762Z,41.60
2018-07-22T13:53:23.988Z,41.50
2018-07-22T13:55:52.252Z,44.80
2018-07-22T13:58:20.471Z,43.80
2018-07-22T14:00:48.709Z,44.20
2018-07-22T14:03:16.999Z,44.00
2018-07-22T14:05:45.234Z,42.90
2018-07-22T14:08:13.443Z,42.00
2018-07-22T14:10:41.680Z,44.30
2018-07-22T14:13:09.901Z,47.30
2018-07-22T14:15:38.178Z,41.80
2018-07-22T14:18:06.533Z,42.20
2018-07-22T14:20:34.767Z,45.30
2018-07-22T14:23:02.996Z,46.60
2018-07-22T14:25:31.251Z,47.10
2018-07-22T14:27:59.526Z,44.90
2018-07-22T14:30:27.732Z,46.30
2018-07-22T14:32:55.956Z,48.80
2018-07-22T14:35:24.187Z,46.80
2018-07-22T14:37:52.406Z,47.00
2018-07-22T14:40:20.653Z,44.70
2018-07-22T14:42:49.260Z,44.80
2018-07-22T14:45:17.489Z,44.20
2018-07-22T14:47:45.747Z,44.10
2018-07-22T14:50:13.992Z,43.60
2018-07-22T14:52:42.276Z,45.80
2018-07-22T14:55:10.564Z,43.20
2018-07-22T14:57:38.797Z,46.70
2018-07-22T15:00:07.555Z,44.80
2018-07-22T15:02:36.575Z,44.80
2018-07-22T15:05:05.143Z,43.80
2018-07-22T15:07:33.360Z,43.60
2018-07-22T15:10:01.608Z,45.40
2018-07-22T15:12:29.839Z,42.20
2018-07-22T15:14:58.120Z,45.00
2018-07-22T15:17:26.355Z,44.60
2018-07-22T15:19:54.585Z,42.20
2018-07-22T15:22:22.807Z,42.70
2018-07-22T15:24:51.056Z,45.60
2018-07-22T15:27:19.273Z,46.30
2018-07-22T15:29:47.513Z,48.70
2018-07-22T15:32:15.830Z,46.10
2018-07-22T15:34:44.080Z,44.00
2018-07-22T15:37:12.295Z,50.30
2018-07-22T15:39:40.525Z,45.80
2018-07-22T15:42:08.788Z,45.20
2018-07-22T15:44:37.011Z,46.50
2018-07-22T15:47:05.256Z,45.70
2018-07-22T15:49:33.501Z,47.10
2018-07-22T15:52:01.735Z,44.90
2018-07-22T15:54:29.959Z,42.90
2018-07-22T15:56:58.205Z,48.30
2018-07-22T15:59:26.421Z,43.80
2018-07-22T16:01:54.666Z,48.30
2018-07-22T16:04:22.892Z,47.70
2018-07-22T16:06:51.165Z,49.50
2018-07-22T16:09:19.388Z,47.70
2018-07-22T16:11:47.629Z,44.70
2018-07-22T16:14:15.858Z,44.30
2018-07-22T16:16:44.107Z,48.10
2018-07-22T16:19:12.340Z,48.10
2018-07-22T16:21:40.567Z,45.50
2018-07-22T16:24:08.790Z,47.60
2018-07-22T16:26:37.147Z,49.10
2018-07-22T16:29:05.359Z,55.00
2018-07-22T16:31:33.600Z,50.60
2018-07-22T16:34:01.833Z,45.90
2018-07-22T16:36:30.097Z,49.80
2018-07-22T16:38:58.324Z,49.50
2018-07-22T16:41:26.560Z,47.40
2018-07-22T16:43:54.779Z,48.20
2018-07-22T16:46:23.028Z,50.40
2018-07-22T16:48:51.245Z,57.70
2018-07-22T16:51:19.496Z,54.00
2018-07-22T16:53:47.755Z,53.40
2018-07-22T16:56:15.993Z,54.60
2018-07-22T16:58:44.204Z,50.20
2018-07-22T17:01:12.442Z,49.40
2018-07-22T17:03:40.672Z,53.60
2018-07-22T17:06:08.916Z,50.00
2018-07-22T17:08:37.136Z,53.40
2018-07-22T17:11:05.373Z,49.30
2018-07-22T17:13:33.588Z,52.80
2018-07-22T17:16:01.828Z,56.70
2018-07-22T17:18:30.068Z,59.70
2018-07-22T17:20:58.299Z,57.70
2018-07-22T17:23:26.515Z,51.20
2018-07-22T17:25:54.756Z,52.60
2018-07-22T17:28:22.964Z,56.80
2018-07-22T17:30:51.204Z,54.80
2018-07-22T17:33:19.439Z,59.30
2018-07-22T17:35:47.700Z,56.80
2018-07-22T17:38:15.916Z,57.90
2018-07-22T17:40:44.127Z,58.20
2018-07-22T17:43:12.356Z,58.10
2018-07-22T17:45:40.569Z,60.00
2018-07-22T17:48:15.424Z,60.10
2018-07-22T17:50:43.643Z,54.00
2018-07-22T17:53:11.871Z,54.20
2018-07-22T17:55:40.121Z,52.40
2018-07-22T17:58:08.376Z,54.00
2018-07-22T18:00:36.591Z,54.30
2018-07-22T18:03:20.195Z,54.90
2018-07-22T18:05:48.556Z,56.30
2018-07-22T18:08:16.895Z,55.30
2018-07-22T18:10:45.119Z,52.30
2018-07-22T18:13:13.357Z,50.10
2018-07-22T18:15:41.656Z,51.30
2018-07-22T18:18:10.136Z,56.70
2018-07-22T18:20:38.388Z,56.20
2018-07-22T18:23:06.675Z,53.70
2018-07-22T18:25:34.891Z,55.90
2018-07-22T18:28:03.120Z,58.10
2018-07-22T18:30:31.509Z,66.50
2018-07-22T18:32:59.760Z,64.30
2018-07-22T18:35:27.967Z,65.80
2018-07-22T18:37:56.204Z,72.10
2018-07-22T18:40:25.227Z,71.30
2018-07-22T18:42:53.837Z,70.70
2018-07-22T18:45:22.100Z,70.30
2018-07-22T18:47:50.347Z,72.00
2018-07-22T18:50:18.551Z,72.00
2018-07-22T18:52:47.034Z,74.10
2018-07-22T18:55:15.250Z,74.30
2018-07-22T18:57:43.483Z,74.40
2018-07-22T19:00:11.695Z,74.60
2018-07-22T19:02:39.968Z,77.20
2018-07-22T19:05:08.416Z,76.80
2018-07-22T19:07:36.763Z,76.00
2018-07-22T19:10:05.337Z,77.90
2018-07-22T19:12:33.577Z,80.20
2018-07-22T19:15:01.788Z,81.50
2018-07-22T19:17:30.045Z,82.60
2018-07-22T19:19:58.264Z,82.00
2018-07-22T19:22:26.532Z,81.00
2018-07-22T19:24:54.752Z,83.30
2018-07-22T19:27:22.988Z,80.90
2018-07-22T19:29:51.209Z,82.20
2018-07-22T19:32:19.443Z,81.00
2018-07-22T19:34:47.660Z,81.90
2018-07-22T19:37:15.896Z,81.60
2018-07-22T19:39:44.121Z,83.30
2018-07-22T19:42:12.360Z,83.30
2018-07-22T19:44:40.592Z,85.50
2018-07-22T19:47:08.803Z,88.10
2018-07-22T19:49:37.040Z,84.50
2018-07-22T19:52:05.260Z,82.70
2018-07-22T19:54:33.489Z,85.10
2018-07-22T19:57:01.705Z,84.70
2018-07-22T19:59:29.940Z,82.10
2018-07-22T20:01:58.148Z,82.90
2018-07-22T20:04:26.380Z,86.60
2018-07-22T20:06:54.603Z,83.30
